sensor_id;sensor_type;location;lat;lon;timestamp;temperature;humidity
46492;DHT22;32206;51.446;6.792;2023-02-21T00:00:16;8.40;99.90
46492;DHT22;32206;51.446;6.792;2023-02-21T00:03:00;8.40;99.90
46492;DHT22;32206;51.446;6.792;2023-02-21T00:05:44;8.40;99.90
46492;DHT22;32206;51.446;6.792;2023-02-21T00:08:28;8.40;99.90
46492;DHT22;32206;51.446;6.792;2023-02-21T00:11:12;8.70;99.90
46492;DHT22;32206;51.446;6.792;2023-02-21T00:13:56;8.70;99.90
46492;DHT22;32206;51.446;6.792;2023-02-21T00:16:40;8.40;99.90
46492;DHT22;32206;51.446;6.792;2023-02-21T00:19:25;8.40;99.90
46492;DHT22;32206;51.446;6.792;2023-02-21T00:22:09;8.40;99.90
46492;DHT22;32206;51.446;6.792;2023-02-21T00:24:53;8.40;99.90
46492;DHT22;32206;51.446;6.792;2023-02-21T00:27:37;8.40;99.90
46492;DHT22;32206;51.446;6.792;2023-02-21T00:30:21;8.40;99.90
46492;DHT22;32206;51.446;6.792;2023-02-21T00:33:05;8.40;99.90
46492;DHT22;32206;51.446;6.792;2023-02-21T00:35:49;8.40;99.90
46492;DHT22;32206;51.446;6.792;2023-02-21T00:38:36;8.40;99.90
46492;DHT22;32206;51.446;6.792;2023-02-21T00:41:21;8.70;99.90
46492;DHT22;32206;51.446;6.792;2023-02-21T00:44:05;8.40;99.90
46492;DHT22;32206;51.446;6.792;2023-02-21T00:46:50;9.00;99.90
46492;DHT22;32206;51.446;6.792;2023-02-21T00:49:34;8.50;99.90
46492;DHT22;32206;51.446;6.792;2023-02-21T00:52:18;8.50;99.90
46492;DHT22;32206;51.446;6.792;2023-02-21T00:55:02;8.40;99.90
46492;DHT22;32206;51.446;6.792;2023-02-21T00:57:46;8.50;99.90
46492;DHT22;32206;51.446;6.792;2023-02-21T01:00:30;8.50;99.90
46492;DHT22;32206;51.446;6.792;2023-02-21T01:10:05;8.30;99.90
46492;DHT22;32206;51.446;6.792;2023-02-21T01:12:49;8.40;99.90
46492;DHT22;32206;51.446;6.792;2023-02-21T01:15:33;8.30;99.90
46492;DHT22;32206;51.446;6.792;2023-02-21T01:18:17;8.50;99.90
46492;DHT22;32206;51.446;6.792;2023-02-21T01:21:01;8.60;99.90
46492;DHT22;32206;51.446;6.792;2023-02-21T01:23:45;8.30;99.90
46492;DHT22;32206;51.446;6.792;2023-02-21T01:26:29;8.30;99.90
46492;DHT22;32206;51.446;6.792;2023-02-21T01:29:15;8.30;99.90
46492;DHT22;32206;51.446;6.792;2023-02-21T01:31:59;8.30;99.90
46492;DHT22;32206;51.446;6.792;2023-02-21T01:34:43;8.30;99.90
46492;DHT22;32206;51.446;6.792;2023-02-21T01:37:27;8.30;99.90
46492;DHT22;32206;51.446;6.792;2023-02-21T01:40:15;8.80;99.90
46492;DHT22;32206;51.446;6.792;2023-02-21T01:42:59;8.30;99.90
46492;DHT22;32206;51.446;6.792;2023-02-21T01:45:52;8.20;99.90
46492;DHT22;32206;51.446;6.792;2023-02-21T01:48:38;8.40;99.90
46492;DHT22;32206;51.446;6.792;2023-02-21T01:51:32;8.20;99.90
46492;DHT22;32206;51.446;6.792;2023-02-21T01:54:18;8.20;99.90
46492;DHT22;32206;51.446;6.792;2023-02-21T01:57:04;8.20;99.90
46492;DHT22;32206;51.446;6.792;2023-02-21T01:59:50;8.20;99.90
46492;DHT22;32206;51.446;6.792;2023-02-21T02:05:30;8.20;99.90
46492;DHT22;32206;51.446;6.792;2023-02-21T02:08:17;8.30;99.90
46492;DHT22;32206;51.446;6.792;2023-02-21T02:24:35;8.20;99.90
46492;DHT22;32206;51.446;6.792;2023-02-21T02:35:55;8.10;99.90
46492;DHT22;32206;51.446;6.792;2023-02-21T02:38:32;8.10;99.90
46492;DHT22;32206;51.446;6.792;2023-02-21T02:41:02;8.10;99.90
46492;DHT22;32206;51.446;6.792;2023-02-21T02:46:42;8.10;99.90
46492;DHT22;32206;51.446;6.792;2023-02-21T02:49:15;8.10;99.90
46492;DHT22;32206;51.446;6.792;2023-02-21T02:51:42;8.10;99.90
46492;DHT22;32206;51.446;6.792;2023-02-21T02:54:07;8.10;99.90
46492;DHT22;32206;51.446;6.792;2023-02-21T02:59:55;8.10;99.90
46492;DHT22;32206;51.446;6.792;2023-02-21T03:08:03;8.00;99.90
46492;DHT22;32206;51.446;6.792;2023-02-21T03:11:00;8.10;99.90
46492;DHT22;32206;51.446;6.792;2023-02-21T03:16:50;8.00;99.90
46492;DHT22;32206;51.446;6.792;2023-02-21T03:19:27;8.00;99.90
46492;DHT22;32206;51.446;6.792;2023-02-21T03:21:59;8.40;99.90
46492;DHT22;32206;51.446;6.792;2023-02-21T03:24:26;8.00;99.90
46492;DHT22;32206;51.446;6.792;2023-02-21T03:30:33;8.00;99.90
46492;DHT22;32206;51.446;6.792;2023-02-21T03:32:59;8.10;99.90
46492;DHT22;32206;51.446;6.792;2023-02-21T03:35:28;8.10;99.90
46492;DHT22;32206;51.446;6.792;2023-02-21T03:37:55;8.40;99.90
46492;DHT22;32206;51.446;6.792;2023-02-21T03:46:42;8.00;99.90
46492;DHT22;32206;51.446;6.792;2023-02-21T03:49:08;7.90;99.90
46492;DHT22;32206;51.446;6.792;2023-02-21T03:51:33;8.20;99.90
46492;DHT22;32206;51.446;6.792;2023-02-21T03:53:59;8.00;99.90
46492;DHT22;32206;51.446;6.792;2023-02-21T03:56:25;7.90;99.90
46492;DHT22;32206;51.446;6.792;2023-02-21T03:58:50;7.90;99.90
46492;DHT22;32206;51.446;6.792;2023-02-21T04:01:16;7.90;99.90
46492;DHT22;32206;51.446;6.792;2023-02-21T04:03:42;8.00;99.90
46492;DHT22;32206;51.446;6.792;2023-02-21T04:09:33;7.90;99.90
46492;DHT22;32206;51.446;6.792;2023-02-21T04:11:58;7.90;99.90
46492;DHT22;32206;51.446;6.792;2023-02-21T04:14:24;7.90;99.90
46492;DHT22;32206;51.446;6.792;2023-02-21T04:16:50;7.90;99.90
46492;DHT22;32206;51.446;6.792;2023-02-21T04:19:16;7.90;99.90
46492;DHT22;32206;51.446;6.792;2023-02-21T04:21:42;7.90;99.90
46492;DHT22;32206;51.446;6.792;2023-02-21T04:24:08;7.90;99.90
46492;DHT22;32206;51.446;6.792;2023-02-21T04:26:33;7.90;99.90
46492;DHT22;32206;51.446;6.792;2023-02-21T04:29:00;7.90;99.90
46492;DHT22;32206;51.446;6.792;2023-02-21T04:31:26;7.80;99.90
46492;DHT22;32206;51.446;6.792;2023-02-21T04:33:51;7.90;99.90
46492;DHT22;32206;51.446;6.792;2023-02-21T04:36:54;7.90;99.90
46492;DHT22;32206;51.446;6.792;2023-02-21T04:42:42;7.90;99.90
46492;DHT22;32206;51.446;6.792;2023-02-21T04:45:08;7.80;99.90
46492;DHT22;32206;51.446;6.792;2023-02-21T04:47:34;7.80;99.90
46492;DHT22;32206;51.446;6.792;2023-02-21T04:49:59;8.50;99.90
46492;DHT22;32206;51.446;6.792;2023-02-21T04:52:25;7.90;99.90
46492;DHT22;32206;51.446;6.792;2023-02-21T04:54:51;7.90;99.90
46492;DHT22;32206;51.446;6.792;2023-02-21T04:57:16;8.40;99.90
46492;DHT22;32206;51.446;6.792;2023-02-21T04:59:42;7.90;99.90
46492;DHT22;32206;51.446;6.792;2023-02-21T05:02:08;8.00;99.90
46492;DHT22;32206;51.446;6.792;2023-02-21T05:04:35;7.90;99.90
46492;DHT22;32206;51.446;6.792;2023-02-21T05:07:01;7.80;99.90
46492;DHT22;32206;51.446;6.792;2023-02-21T05:09:27;7.90;99.90
46492;DHT22;32206;51.446;6.792;2023-02-21T05:11:52;8.30;99.90
46492;DHT22;32206;51.446;6.792;2023-02-21T05:14:18;8.90;99.90
46492;DHT22;32206;51.446;6.792;2023-02-21T05:16:44;7.80;99.90
46492;DHT22;32206;51.446;6.792;2023-02-21T05:19:10;7.80;99.90
46492;DHT22;32206;51.446;6.792;2023-02-21T05:25:17;7.80;99.90
46492;DHT22;32206;51.446;6.792;2023-02-21T05:27:47;7.80;99.90
46492;DHT22;32206;51.446;6.792;2023-02-21T05:33:23;7.70;99.90
46492;DHT22;32206;51.446;6.792;2023-02-21T05:42:33;7.60;99.90
46492;DHT22;32206;51.446;6.792;2023-02-21T05:44:58;7.60;99.90
46492;DHT22;32206;51.446;6.792;2023-02-21T05:47:24;7.60;99.90
46492;DHT22;32206;51.446;6.792;2023-02-21T05:49:50;7.60;99.90
46492;DHT22;32206;51.446;6.792;2023-02-21T05:52:16;7.60;99.90
46492;DHT22;32206;51.446;6.792;2023-02-21T05:54:43;7.60;99.90
46492;DHT22;32206;51.446;6.792;2023-02-21T05:57:08;7.60;99.90
46492;DHT22;32206;51.446;6.792;2023-02-21T05:59:34;7.60;99.90
46492;DHT22;32206;51.446;6.792;2023-02-21T06:02:00;7.90;99.90
46492;DHT22;32206;51.446;6.792;2023-02-21T06:04:25;8.10;99.90
46492;DHT22;32206;51.446;6.792;2023-02-21T06:10:47;7.60;99.90
46492;DHT22;32206;51.446;6.792;2023-02-21T06:13:13;7.70;99.90
46492;DHT22;32206;51.446;6.792;2023-02-21T06:15:39;7.70;99.90
46492;DHT22;32206;51.446;6.792;2023-02-21T06:18:04;7.70;99.90
46492;DHT22;32206;51.446;6.792;2023-02-21T06:20:30;7.70;99.90
46492;DHT22;32206;51.446;6.792;2023-02-21T06:26:18;7.70;99.90
46492;DHT22;32206;51.446;6.792;2023-02-21T06:28:45;7.60;99.90
46492;DHT22;32206;51.446;6.792;2023-02-21T06:31:11;7.70;99.90
46492;DHT22;32206;51.446;6.792;2023-02-21T06:33:37;7.60;99.90
46492;DHT22;32206;51.446;6.792;2023-02-21T06:36:07;7.70;99.90
46492;DHT22;32206;51.446;6.792;2023-02-21T06:41:57;7.70;99.90
46492;DHT22;32206;51.446;6.792;2023-02-21T06:44:22;7.70;99.90
46492;DHT22;32206;51.446;6.792;2023-02-21T06:46:48;7.90;99.90
46492;DHT22;32206;51.446;6.792;2023-02-21T06:49:20;8.10;99.90
46492;DHT22;32206;51.446;6.792;2023-02-21T06:51:55;7.60;99.90
46492;DHT22;32206;51.446;6.792;2023-02-21T06:54:20;7.60;99.90
46492;DHT22;32206;51.446;6.792;2023-02-21T06:56:46;7.60;99.90
46492;DHT22;32206;51.446;6.792;2023-02-21T06:59:12;7.50;99.90
46492;DHT22;32206;51.446;6.792;2023-02-21T07:01:37;7.50;99.90
46492;DHT22;32206;51.446;6.792;2023-02-21T07:07:44;7.60;99.90
46492;DHT22;32206;51.446;6.792;2023-02-21T07:10:10;7.30;99.90
46492;DHT22;32206;51.446;6.792;2023-02-21T07:12:38;7.60;99.90
46492;DHT22;32206;51.446;6.792;2023-02-21T07:15:05;7.60;99.90
46492;DHT22;32206;51.446;6.792;2023-02-21T07:17:30;7.60;99.90
46492;DHT22;32206;51.446;6.792;2023-02-21T07:19:56;7.60;99.90
46492;DHT22;32206;51.446;6.792;2023-02-21T07:22:44;7.80;99.90
46492;DHT22;32206;51.446;6.792;2023-02-21T07:25:17;7.60;99.90
46492;DHT22;32206;51.446;6.792;2023-02-21T07:27:46;7.50;99.90
46492;DHT22;32206;51.446;6.792;2023-02-21T07:30:12;7.50;99.90
46492;DHT22;32206;51.446;6.792;2023-02-21T07:32:38;7.50;99.90
46492;DHT22;32206;51.446;6.792;2023-02-21T07:35:04;7.60;99.90
46492;DHT22;32206;51.446;6.792;2023-02-21T07:37:30;7.50;99.90
46492;DHT22;32206;51.446;6.792;2023-02-21T07:43:18;7.40;99.90
46492;DHT22;32206;51.446;6.792;2023-02-21T07:49:24;7.50;99.90
46492;DHT22;32206;51.446;6.792;2023-02-21T07:51:50;7.50;99.90
46492;DHT22;32206;51.446;6.792;2023-02-21T07:54:17;7.50;99.90
46492;DHT22;32206;51.446;6.792;2023-02-21T07:56:47;7.50;99.90
46492;DHT22;32206;51.446;6.792;2023-02-21T07:59:13;7.50;99.90
46492;DHT22;32206;51.446;6.792;2023-02-21T08:01:39;7.50;99.90
46492;DHT22;32206;51.446;6.792;2023-02-21T08:04:05;7.40;99.90
46492;DHT22;32206;51.446;6.792;2023-02-21T08:06:33;8.00;99.90
46492;DHT22;32206;51.446;6.792;2023-02-21T08:12:20;7.50;99.90
46492;DHT22;32206;51.446;6.792;2023-02-21T08:14:46;7.50;99.90
46492;DHT22;32206;51.446;6.792;2023-02-21T08:17:12;7.50;99.90
46492;DHT22;32206;51.446;6.792;2023-02-21T08:19:39;7.50;99.90
46492;DHT22;32206;51.446;6.792;2023-02-21T08:22:04;7.50;99.90
46492;DHT22;32206;51.446;6.792;2023-02-21T08:27:52;7.40;99.90
46492;DHT22;32206;51.446;6.792;2023-02-21T08:33:41;7.50;99.90
46492;DHT22;32206;51.446;6.792;2023-02-21T08:36:08;7.90;99.90
46492;DHT22;32206;51.446;6.792;2023-02-21T08:41:56;7.40;99.90
46492;DHT22;32206;51.446;6.792;2023-02-21T08:44:22;7.40;99.90
46492;DHT22;32206;51.446;6.792;2023-02-21T08:46:48;7.80;99.90
46492;DHT22;32206;51.446;6.792;2023-02-21T08:49:13;7.40;99.90
46492;DHT22;32206;51.446;6.792;2023-02-21T08:51:39;7.70;99.90
46492;DHT22;32206;51.446;6.792;2023-02-21T08:54:06;7.50;99.90
46492;DHT22;32206;51.446;6.792;2023-02-21T08:56:32;7.50;99.90
46492;DHT22;32206;51.446;6.792;2023-02-21T08:58:58;7.50;99.90
46492;DHT22;32206;51.446;6.792;2023-02-21T09:05:15;7.60;99.90
46492;DHT22;32206;51.446;6.792;2023-02-21T09:07:43;7.60;99.90
46492;DHT22;32206;51.446;6.792;2023-02-21T09:10:10;7.60;99.90
46492;DHT22;32206;51.446;6.792;2023-02-21T09:12:39;7.60;99.90
46492;DHT22;32206;51.446;6.792;2023-02-21T09:15:06;7.60;99.90
46492;DHT22;32206;51.446;6.792;2023-02-21T09:20:54;7.60;99.90
46492;DHT22;32206;51.446;6.792;2023-02-21T09:30:08;7.60;99.90
46492;DHT22;32206;51.446;6.792;2023-02-21T09:32:34;7.60;99.90
46492;DHT22;32206;51.446;6.792;2023-02-21T09:35:01;7.50;99.90
46492;DHT22;32206;51.446;6.792;2023-02-21T09:37:27;7.50;99.90
46492;DHT22;32206;51.446;6.792;2023-02-21T09:39:52;7.40;99.90
46492;DHT22;32206;51.446;6.792;2023-02-21T09:42:18;7.40;99.90
46492;DHT22;32206;51.446;6.792;2023-02-21T09:44:46;7.50;99.90
46492;DHT22;32206;51.446;6.792;2023-02-21T09:50:50;7.50;99.90
46492;DHT22;32206;51.446;6.792;2023-02-21T09:53:25;7.60;99.90
46492;DHT22;32206;51.446;6.792;2023-02-21T09:56:12;7.80;99.90
46492;DHT22;32206;51.446;6.792;2023-02-21T09:58:40;7.50;99.90
46492;DHT22;32206;51.446;6.792;2023-02-21T10:01:18;7.60;99.90
46492;DHT22;32206;51.446;6.792;2023-02-21T10:07:01;7.70;99.90
46492;DHT22;32206;51.446;6.792;2023-02-21T10:09:43;7.70;99.90
46492;DHT22;32206;51.446;6.792;2023-02-21T10:12:19;7.70;99.90
46492;DHT22;32206;51.446;6.792;2023-02-21T10:17:42;7.90;99.90
46492;DHT22;32206;51.446;6.792;2023-02-21T10:20:28;8.00;99.90
46492;DHT22;32206;51.446;6.792;2023-02-21T10:22:55;8.00;99.90
46492;DHT22;32206;51.446;6.792;2023-02-21T10:28:46;8.20;99.90
46492;DHT22;32206;51.446;6.792;2023-02-21T10:31:35;8.00;99.90
46492;DHT22;32206;51.446;6.792;2023-02-21T10:34:05;7.80;99.90
46492;DHT22;32206;51.446;6.792;2023-02-21T10:36:33;7.90;99.90
46492;DHT22;32206;51.446;6.792;2023-02-21T10:41:51;8.00;99.90
46492;DHT22;32206;51.446;6.792;2023-02-21T10:44:24;8.00;99.90
46492;DHT22;32206;51.446;6.792;2023-02-21T10:46:58;8.10;99.90
46492;DHT22;32206;51.446;6.792;2023-02-21T10:52:12;8.20;99.90
46492;DHT22;32206;51.446;6.792;2023-02-21T10:54:38;8.10;99.90
46492;DHT22;32206;51.446;6.792;2023-02-21T10:57:07;8.10;99.90
46492;DHT22;32206;51.446;6.792;2023-02-21T10:59:37;8.20;99.90
46492;DHT22;32206;51.446;6.792;2023-02-21T11:05:27;8.20;99.90
46492;DHT22;32206;51.446;6.792;2023-02-21T11:08:00;8.20;99.90
46492;DHT22;32206;51.446;6.792;2023-02-21T11:13:48;8.30;99.90
46492;DHT22;32206;51.446;6.792;2023-02-21T11:16:19;8.40;99.90
46492;DHT22;32206;51.446;6.792;2023-02-21T11:19:03;8.50;99.90
46492;DHT22;32206;51.446;6.792;2023-02-21T11:21:29;8.90;99.90
46492;DHT22;32206;51.446;6.792;2023-02-21T11:23:58;8.50;99.90
46492;DHT22;32206;51.446;6.792;2023-02-21T11:29:50;8.60;99.90
46492;DHT22;32206;51.446;6.792;2023-02-21T11:39:06;8.80;99.90
46492;DHT22;32206;51.446;6.792;2023-02-21T11:44:29;8.90;99.90
46492;DHT22;32206;51.446;6.792;2023-02-21T11:52:37;8.90;99.90
46492;DHT22;32206;51.446;6.792;2023-02-21T12:04:31;9.10;99.90
46492;DHT22;32206;51.446;6.792;2023-02-21T12:15:36;9.20;99.90
46492;DHT22;32206;51.446;6.792;2023-02-21T12:28:52;9.20;99.90
46492;DHT22;32206;51.446;6.792;2023-02-21T12:34:16;9.20;99.90
46492;DHT22;32206;51.446;6.792;2023-02-21T12:48:40;9.10;99.90
46492;DHT22;32206;51.446;6.792;2023-02-21T12:51:13;9.00;99.90
46492;DHT22;32206;51.446;6.792;2023-02-21T12:53:50;9.20;99.90
46492;DHT22;32206;51.446;6.792;2023-02-21T13:05:37;9.10;99.90
46492;DHT22;32206;51.446;6.792;2023-02-21T13:08:24;9.20;99.90
46492;DHT22;32206;51.446;6.792;2023-02-21T13:14:17;9.30;99.90
46492;DHT22;32206;51.446;6.792;2023-02-21T13:16:44;9.20;99.90
46492;DHT22;32206;51.446;6.792;2023-02-21T13:19:11;9.20;99.90
46492;DHT22;32206;51.446;6.792;2023-02-21T13:24:56;9.30;99.90
46492;DHT22;32206;51.446;6.792;2023-02-21T13:30:56;9.30;99.90
46492;DHT22;32206;51.446;6.792;2023-02-21T13:33:28;9.30;99.90
46492;DHT22;32206;51.446;6.792;2023-02-21T13:35:58;9.30;99.90
46492;DHT22;32206;51.446;6.792;2023-02-21T13:38:27;9.30;99.90
46492;DHT22;32206;51.446;6.792;2023-02-21T13:54:08;9.00;99.90
46492;DHT22;32206;51.446;6.792;2023-02-21T14:13:48;9.00;99.90
46492;DHT22;32206;51.446;6.792;2023-02-21T14:19:07;8.80;99.90
46492;DHT22;32206;51.446;6.792;2023-02-21T14:21:50;8.80;99.90
46492;DHT22;32206;51.446;6.792;2023-02-21T14:24:24;8.80;99.90
46492;DHT22;32206;51.446;6.792;2023-02-21T14:33:35;8.80;99.90
46492;DHT22;32206;51.446;6.792;2023-02-21T14:39:23;8.90;99.90
46492;DHT22;32206;51.446;6.792;2023-02-21T14:48:00;9.00;99.90
46492;DHT22;32206;51.446;6.792;2023-02-21T15:03:16;9.00;99.90
46492;DHT22;32206;51.446;6.792;2023-02-21T15:05:55;9.00;99.90
46492;DHT22;32206;51.446;6.792;2023-02-21T15:08:24;9.00;99.90
46492;DHT22;32206;51.446;6.792;2023-02-21T15:10:53;9.10;99.90
46492;DHT22;32206;51.446;6.792;2023-02-21T15:13:29;9.10;99.90
46492;DHT22;32206;51.446;6.792;2023-02-21T15:16:09;9.10;99.90
46492;DHT22;32206;51.446;6.792;2023-02-21T15:19:00;9.20;99.90
46492;DHT22;32206;51.446;6.792;2023-02-21T15:21:26;9.30;99.90
46492;DHT22;32206;51.446;6.792;2023-02-21T15:24:15;9.10;99.90
46492;DHT22;32206;51.446;6.792;2023-02-21T15:26:41;9.10;99.90
46492;DHT22;32206;51.446;6.792;2023-02-21T15:32:29;9.10;99.90
46492;DHT22;32206;51.446;6.792;2023-02-21T15:34:54;9.30;99.90
46492;DHT22;32206;51.446;6.792;2023-02-21T15:37:24;9.00;99.90
46492;DHT22;32206;51.446;6.792;2023-02-21T15:39:55;9.00;99.90
46492;DHT22;32206;51.446;6.792;2023-02-21T15:49:06;9.20;99.90
46492;DHT22;32206;51.446;6.792;2023-02-21T15:51:32;9.20;99.90
46492;DHT22;32206;51.446;6.792;2023-02-21T15:56:42;9.10;99.90
46492;DHT22;32206;51.446;6.792;2023-02-21T15:59:09;9.10;99.90
46492;DHT22;32206;51.446;6.792;2023-02-21T16:01:35;9.30;99.90
46492;DHT22;32206;51.446;6.792;2023-02-21T16:04:21;9.10;99.90
46492;DHT22;32206;51.446;6.792;2023-02-21T16:06:51;9.10;99.90
46492;DHT22;32206;51.446;6.792;2023-02-21T16:09:24;9.10;99.90
46492;DHT22;32206;51.446;6.792;2023-02-21T16:11:52;9.10;99.90
46492;DHT22;32206;51.446;6.792;2023-02-21T16:16:44;9.00;99.90
46492;DHT22;32206;51.446;6.792;2023-02-21T16:19:11;9.60;99.90
46492;DHT22;32206;51.446;6.792;2023-02-21T16:21:36;9.10;99.90
46492;DHT22;32206;51.446;6.792;2023-02-21T16:24:33;9.00;99.90
46492;DHT22;32206;51.446;6.792;2023-02-21T16:27:02;9.00;99.90
46492;DHT22;32206;51.446;6.792;2023-02-21T16:32:51;9.00;99.90
46492;DHT22;32206;51.446;6.792;2023-02-21T16:35:22;9.00;99.90
46492;DHT22;32206;51.446;6.792;2023-02-21T16:41:14;8.90;99.90
46492;DHT22;32206;51.446;6.792;2023-02-21T16:50:32;8.90;99.90
46492;DHT22;32206;51.446;6.792;2023-02-21T16:52:59;9.00;99.90
46492;DHT22;32206;51.446;6.792;2023-02-21T16:55:25;9.00;99.90
46492;DHT22;32206;51.446;6.792;2023-02-21T16:57:58;9.40;99.90
46492;DHT22;32206;51.446;6.792;2023-02-21T17:03:46;8.90;99.90
46492;DHT22;32206;51.446;6.792;2023-02-21T17:12:57;8.90;99.90
46492;DHT22;32206;51.446;6.792;2023-02-21T17:15:23;8.90;99.90
46492;DHT22;32206;51.446;6.792;2023-02-21T17:17:49;8.90;99.90
46492;DHT22;32206;51.446;6.792;2023-02-21T17:20:16;9.00;99.90
46492;DHT22;32206;51.446;6.792;2023-02-21T17:26:04;8.90;99.90
46492;DHT22;32206;51.446;6.792;2023-02-21T17:31:54;8.90;99.90
46492;DHT22;32206;51.446;6.792;2023-02-21T17:34:20;8.90;99.90
46492;DHT22;32206;51.446;6.792;2023-02-21T17:36:50;8.90;99.90
46492;DHT22;32206;51.446;6.792;2023-02-21T17:39:17;9.00;99.90
46492;DHT22;32206;51.446;6.792;2023-02-21T17:41:47;8.90;99.90
46492;DHT22;32206;51.446;6.792;2023-02-21T17:47:35;8.80;99.90
46492;DHT22;32206;51.446;6.792;2023-02-21T17:50:02;8.80;99.90
46492;DHT22;32206;51.446;6.792;2023-02-21T17:52:29;8.80;99.90
46492;DHT22;32206;51.446;6.792;2023-02-21T17:54:55;8.90;99.90
46492;DHT22;32206;51.446;6.792;2023-02-21T17:57:21;8.80;99.90
46492;DHT22;32206;51.446;6.792;2023-02-21T17:59:47;8.80;99.90
46492;DHT22;32206;51.446;6.792;2023-02-21T18:02:13;8.80;99.90
46492;DHT22;32206;51.446;6.792;2023-02-21T18:04:40;8.80;99.90
46492;DHT22;32206;51.446;6.792;2023-02-21T18:07:06;9.10;99.90
46492;DHT22;32206;51.446;6.792;2023-02-21T18:09:32;8.80;99.90
46492;DHT22;32206;51.446;6.792;2023-02-21T18:11:59;8.80;99.90
46492;DHT22;32206;51.446;6.792;2023-02-21T18:21:09;8.80;99.90
46492;DHT22;32206;51.446;6.792;2023-02-21T18:30:20;8.80;99.90
46492;DHT22;32206;51.446;6.792;2023-02-21T18:32:46;8.80;99.90
46492;DHT22;32206;51.446;6.792;2023-02-21T18:35:14;8.80;99.90
46492;DHT22;32206;51.446;6.792;2023-02-21T18:37:39;8.80;99.90
46492;DHT22;32206;51.446;6.792;2023-02-21T18:43:29;8.80;99.90
46492;DHT22;32206;51.446;6.792;2023-02-21T18:45:56;8.80;99.90
46492;DHT22;32206;51.446;6.792;2023-02-21T18:48:23;8.80;99.90
46492;DHT22;32206;51.446;6.792;2023-02-21T18:50:48;8.80;99.90
46492;DHT22;32206;51.446;6.792;2023-02-21T18:53:15;8.80;99.90
46492;DHT22;32206;51.446;6.792;2023-02-21T18:55:41;8.80;99.90
46492;DHT22;32206;51.446;6.792;2023-02-21T18:58:07;8.80;99.90
46492;DHT22;32206;51.446;6.792;2023-02-21T19:00:34;9.00;99.90
46492;DHT22;32206;51.446;6.792;2023-02-21T19:09:46;8.80;99.90
46492;DHT22;32206;51.446;6.792;2023-02-21T19:12:13;9.10;99.90
46492;DHT22;32206;51.446;6.792;2023-02-21T19:21:24;8.80;99.90
46492;DHT22;32206;51.446;6.792;2023-02-21T19:27:12;8.80;99.90
46492;DHT22;32206;51.446;6.792;2023-02-21T19:29:39;8.80;99.90
46492;DHT22;32206;51.446;6.792;2023-02-21T19:32:06;8.80;99.90
46492;DHT22;32206;51.446;6.792;2023-02-21T19:34:32;8.80;99.90
46492;DHT22;32206;51.446;6.792;2023-02-21T19:36:57;8.80;99.90
46492;DHT22;32206;51.446;6.792;2023-02-21T19:42:45;8.80;99.90
46492;DHT22;32206;51.446;6.792;2023-02-21T19:51:58;8.70;99.90
46492;DHT22;32206;51.446;6.792;2023-02-21T20:04:26;8.70;99.90
46492;DHT22;32206;51.446;6.792;2023-02-21T20:06:55;8.80;99.90
46492;DHT22;32206;51.446;6.792;2023-02-21T20:12:46;8.80;99.90
46492;DHT22;32206;51.446;6.792;2023-02-21T20:18:34;8.90;99.90
46492;DHT22;32206;51.446;6.792;2023-02-21T20:20:59;8.90;99.90
46492;DHT22;32206;51.446;6.792;2023-02-21T20:23:25;8.80;99.90
46492;DHT22;32206;51.446;6.792;2023-02-21T20:25:50;8.80;99.90
46492;DHT22;32206;51.446;6.792;2023-02-21T20:28:16;8.90;99.90
46492;DHT22;32206;51.446;6.792;2023-02-21T20:30:42;9.00;99.90
46492;DHT22;32206;51.446;6.792;2023-02-21T20:33:08;8.90;99.90
46492;DHT22;32206;51.446;6.792;2023-02-21T20:35:34;8.80;99.90
46492;DHT22;32206;51.446;6.792;2023-02-21T20:37:59;8.80;99.90
46492;DHT22;32206;51.446;6.792;2023-02-21T20:40:33;9.10;99.90
46492;DHT22;32206;51.446;6.792;2023-02-21T20:42:59;8.90;99.90
46492;DHT22;32206;51.446;6.792;2023-02-21T20:45:25;8.90;99.90
46492;DHT22;32206;51.446;6.792;2023-02-21T20:51:13;8.90;99.90
46492;DHT22;32206;51.446;6.792;2023-02-21T20:53:41;8.80;99.90
46492;DHT22;32206;51.446;6.792;2023-02-21T20:56:07;8.80;99.90
46492;DHT22;32206;51.446;6.792;2023-02-21T20:58:32;8.70;99.90
46492;DHT22;32206;51.446;6.792;2023-02-21T21:04:31;8.80;99.90
46492;DHT22;32206;51.446;6.792;2023-02-21T21:07:02;9.20;99.90
46492;DHT22;32206;51.446;6.792;2023-02-21T21:13:09;8.70;99.90
46492;DHT22;32206;51.446;6.792;2023-02-21T21:15:35;8.70;99.90
46492;DHT22;32206;51.446;6.792;2023-02-21T21:21:30;8.60;99.90
46492;DHT22;32206;51.446;6.792;2023-02-21T21:23:56;8.80;99.90
46492;DHT22;32206;51.446;6.792;2023-02-21T21:32:55;8.50;99.90
46492;DHT22;32206;51.446;6.792;2023-02-21T21:35:21;8.60;99.90
46492;DHT22;32206;51.446;6.792;2023-02-21T21:37:47;8.80;99.90
46492;DHT22;32206;51.446;6.792;2023-02-21T21:40:14;8.30;99.90
46492;DHT22;32206;51.446;6.792;2023-02-21T21:42:47;8.40;99.90
46492;DHT22;32206;51.446;6.792;2023-02-21T21:45:26;8.40;99.90
46492;DHT22;32206;51.446;6.792;2023-02-21T21:51:17;8.40;99.90
46492;DHT22;32206;51.446;6.792;2023-02-21T21:53:43;8.90;99.90
46492;DHT22;32206;51.446;6.792;2023-02-21T21:56:10;8.40;99.90
46492;DHT22;32206;51.446;6.792;2023-02-21T21:58:36;8.50;99.90
46492;DHT22;32206;51.446;6.792;2023-02-21T22:01:03;8.90;99.90
46492;DHT22;32206;51.446;6.792;2023-02-21T22:03:32;8.30;99.90
46492;DHT22;32206;51.446;6.792;2023-02-21T22:05:58;8.30;99.90
46492;DHT22;32206;51.446;6.792;2023-02-21T22:08:27;8.30;99.90
46492;DHT22;32206;51.446;6.792;2023-02-21T22:14:14;8.20;99.90
46492;DHT22;32206;51.446;6.792;2023-02-21T22:16:45;8.20;99.90
46492;DHT22;32206;51.446;6.792;2023-02-21T22:19:11;8.30;99.90
46492;DHT22;32206;51.446;6.792;2023-02-21T22:21:37;8.20;99.90
46492;DHT22;32206;51.446;6.792;2023-02-21T22:24:03;8.50;99.90
46492;DHT22;32206;51.446;6.792;2023-02-21T22:26:31;8.20;99.90
46492;DHT22;32206;51.446;6.792;2023-02-21T22:28:57;8.20;99.90
46492;DHT22;32206;51.446;6.792;2023-02-21T22:31:24;8.20;99.90
46492;DHT22;32206;51.446;6.792;2023-02-21T22:33:50;8.10;99.90
46492;DHT22;32206;51.446;6.792;2023-02-21T22:36:16;8.20;99.90
46492;DHT22;32206;51.446;6.792;2023-02-21T22:45:28;8.30;99.90
46492;DHT22;32206;51.446;6.792;2023-02-21T22:51:45;8.10;99.90
46492;DHT22;32206;51.446;6.792;2023-02-21T22:54:11;8.10;99.90
46492;DHT22;32206;51.446;6.792;2023-02-21T22:56:41;8.00;99.90
46492;DHT22;32206;51.446;6.792;2023-02-21T22:59:16;8.50;99.90
46492;DHT22;32206;51.446;6.792;2023-02-21T23:01:41;8.30;99.90
46492;DHT22;32206;51.446;6.792;2023-02-21T23:07:31;8.10;99.90
46492;DHT22;32206;51.446;6.792;2023-02-21T23:09:57;8.10;99.90
46492;DHT22;32206;51.446;6.792;2023-02-21T23:12:22;8.00;99.90
46492;DHT22;32206;51.446;6.792;2023-02-21T23:14:48;8.10;99.90
46492;DHT22;32206;51.446;6.792;2023-02-21T23:17:13;8.10;99.90
46492;DHT22;32206;51.446;6.792;2023-02-21T23:19:39;8.10;99.90
46492;DHT22;32206;51.446;6.792;2023-02-21T23:22:05;8.10;99.90
46492;DHT22;32206;51.446;6.792;2023-02-21T23:24:34;8.00;99.90
46492;DHT22;32206;51.446;6.792;2023-02-21T23:27:00;8.00;99.90
46492;DHT22;32206;51.446;6.792;2023-02-21T23:29:27;8.00;99.90